Time;durP1;ratioP1;P1;durP2;ratioP2;P2;SDS_P1;SDS_P2;PMS_P1;PMS_P2;Temp;Humidity;BMP_temperature;BMP_pressure;BME280_temperature;BME280_humidity;BME280_pressure;Samples;Min_cycle;Max_cycle;Signal;HPM_P1;HPM_P2
2020/12/16 00:00:19;;;;;;;5.50;3.47;;;;;;;-0.31;87.79;100867.47;1763743;80;21035;-69
2020/12/16 00:02:47;;;;;;;6.50;3.40;;;;;;;-0.31;87.79;100867.47;1787779;80;21017;-70
2020/12/16 00:05:15;;;;;;;12.77;5.50;;;;;;;-0.31;87.74;100874.59;1787714;80;20988;-69
2020/12/16 00:07:43;;;;;;;7.07;4.37;;;;;;;-0.34;87.73;100878.25;1787772;80;20996;-68
2020/12/16 00:10:14;;;;;;;4.07;3.23;;;;;;;-0.35;87.73;100885.85;1787698;80;21202;-69
2020/12/16 00:12:42;;;;;;;7.67;3.30;;;;;;;-0.36;87.72;100889.91;1787729;80;22048;-69
2020/12/16 00:15:10;;;;;;;9.80;4.63;;;;;;;-0.36;87.74;100893.90;1787816;80;20956;-69
2020/12/16 00:17:40;;;;;;;11.40;4.57;;;;;;;-0.35;87.74;100895.60;1780096;80;21071;-71
2020/12/16 00:20:08;;;;;;;10.73;5.67;;;;;;;-0.33;87.78;100891.09;1756599;80;21075;-69
2020/12/16 00:22:39;;;;;;;4.93;3.20;;;;;;;-0.33;87.78;100885.78;1756660;81;21254;-69
2020/12/16 00:25:09;;;;;;;4.67;2.87;;;;;;;-0.34;87.78;100890.69;1756519;81;20952;-69
2020/12/16 00:27:38;;;;;;;6.10;3.30;;;;;;;-0.37;87.76;100892.17;1756632;81;20960;-70
2020/12/16 00:30:07;;;;;;;8.87;4.17;;;;;;;-0.38;87.75;100897.96;1756562;81;20944;-69
2020/12/16 00:32:38;;;;;;;6.27;3.87;;;;;;;-0.40;87.73;100890.55;1756643;81;20936;-70
2020/12/16 00:35:07;;;;;;;5.17;2.97;;;;;;;-0.41;87.73;100896.34;1704927;84;21206;-69
2020/12/16 00:37:41;;;;;;;4.03;3.40;;;;;;;-0.40;87.72;100877.26;1704971;83;21029;-70
2020/12/16 00:40:17;;;;;;;5.87;3.63;;;;;;;-0.37;87.72;100876.22;1845437;76;25336;-69
2020/12/16 00:42:48;;;;;;;6.13;3.77;;;;;;;-0.43;87.71;100878.73;1815519;79;21036;-70
2020/12/16 00:45:17;;;;;;;3.33;2.40;;;;;;;-0.46;87.71;100874.91;1763286;81;22181;-69
2020/12/16 00:47:45;;;;;;;6.40;3.60;;;;;;;-0.48;87.76;100870.14;1763207;81;21067;-69
2020/12/16 00:50:13;;;;;;;6.50;3.10;;;;;;;-0.48;87.77;100867.05;1763290;81;20968;-69
2020/12/16 00:52:43;;;;;;;7.17;3.90;;;;;;;-0.48;87.77;100861.73;1763689;81;21056;-69
2020/12/16 00:55:11;;;;;;;6.33;3.47;;;;;;;-0.46;87.82;100871.80;1738062;81;20996;-70
2020/12/16 00:57:39;;;;;;;7.50;4.57;;;;;;;-0.45;87.88;100877.97;1763476;81;21368;-70
2020/12/16 01:00:09;;;;;;;7.67;4.47;;;;;;;-0.48;87.88;100883.43;1763204;81;21597;-69
2020/12/16 01:02:46;;;;;;;8.10;3.97;;;;;;;-0.53;87.89;100875.72;1763251;81;21031;-70
2020/12/16 01:05:20;;;;;;;7.87;3.90;;;;;;;-0.52;87.94;100876.09;1845464;76;27039;-69
2020/12/16 01:07:50;;;;;;;6.97;4.53;;;;;;;-0.59;87.98;100881.33;1815393;79;20969;-69
2020/12/16 01:10:19;;;;;;;4.73;3.30;;;;;;;-0.62;88.04;100893.44;1815381;79;21183;-69
2020/12/16 01:12:48;;;;;;;6.10;3.13;;;;;;;-0.64;88.14;100888.23;1815314;79;20968;-70
2020/12/16 01:15:19;;;;;;;6.37;3.93;;;;;;;-0.63;88.22;100885.09;1783803;79;21055;-69
2020/12/16 01:17:49;;;;;;;9.33;3.63;;;;;;;-0.63;88.27;100888.59;1815377;79;20972;-69
2020/12/16 01:20:19;;;;;;;3.93;2.70;;;;;;;-0.61;88.31;100883.21;1780942;79;20980;-68
2020/12/16 01:22:48;;;;;;;6.60;2.83;;;;;;;-0.61;88.37;100884.06;1783258;80;23597;-69
2020/12/16 01:25:20;;;;;;;5.20;3.77;;;;;;;-0.61;88.42;100889.38;1752881;80;20995;-70
2020/12/16 01:27:53;;;;;;;3.67;2.42;;;;;;;-0.61;88.47;100886.72;1783445;80;20980;-69
2020/12/16 01:30:21;;;;;;;6.10;3.40;;;;;;;-0.56;88.49;100888.30;1783192;80;21146;-69
2020/12/16 01:32:51;;;;;;;6.40;3.13;;;;;;;-0.55;88.48;100884.69;1783273;80;20992;-70
2020/12/16 01:35:20;;;;;;;6.87;3.33;;;;;;;-0.53;88.48;100881.48;1785737;78;21199;-69
2020/12/16 01:37:48;;;;;;;5.63;3.87;;;;;;;-0.53;88.49;100881.48;1815214;79;20917;-69
2020/12/16 01:40:18;;;;;;;4.83;3.13;;;;;;;-0.52;88.48;100887.20;1784051;79;20944;-70
2020/12/16 01:42:46;;;;;;;2.57;2.37;;;;;;;-0.56;88.48;100883.84;1815230;77;21003;-70
2020/12/16 01:45:21;;;;;;;6.60;3.63;;;;;;;-0.58;88.45;100887.05;1815334;78;21040;-70
2020/12/16 01:47:50;;;;;;;6.97;2.77;;;;;;;-0.59;88.43;100886.64;1815381;79;21304;-71
2020/12/16 01:50:20;;;;;;;4.77;3.10;;;;;;;-0.60;88.42;100886.27;1815273;78;20953;-70
2020/12/16 01:52:48;;;;;;;2.97;2.50;;;;;;;-0.61;88.41;100888.05;1815345;79;20932;-70
2020/12/16 01:55:18;;;;;;;3.27;2.70;;;;;;;-0.60;88.44;100892.91;1784704;79;21079;-70
2020/12/16 01:57:50;;;;;;;7.10;4.75;;;;;;;-0.58;88.43;100895.87;1810768;79;20984;-69
2020/12/16 02:00:20;;;;;;;5.60;3.87;;;;;;;-0.55;88.43;100886.02;1780929;79;22340;-70
2020/12/16 02:02:51;;;;;;;4.57;3.17;;;;;;;-0.55;88.43;100896.64;1815255;79;21116;-69
2020/12/16 02:05:24;;;;;;;4.00;2.77;;;;;;;-0.55;88.45;100893.50;1789818;80;21025;-70
2020/12/16 02:08:01;;;;;;;3.30;2.73;;;;;;;-0.50;88.48;100883.98;1845394;76;25326;-70
2020/12/16 02:10:31;;;;;;;4.10;2.97;;;;;;;-0.55;88.45;100897.49;1815643;77;21379;-69
2020/12/16 02:13:02;;;;;;;3.93;2.57;;;;;;;-0.56;88.42;100890.48;1815446;79;21240;-69
2020/12/16 02:15:30;;;;;;;4.97;2.77;;;;;;;-0.58;88.37;100886.56;1719804;79;20964;-70
2020/12/16 02:17:59;;;;;;;8.40;2.80;;;;;;;-0.60;88.38;100890.25;1815557;79;20917;-69
2020/12/16 02:20:27;;;;;;;3.43;2.90;;;;;;;-0.63;88.34;100895.72;1783898;78;21418;-68
2020/12/16 02:22:55;;;;;;;3.03;1.83;;;;;;;-0.64;88.36;100894.87;1752933;80;21059;-68
2020/12/16 02:25:24;;;;;;;5.50;3.03;;;;;;;-0.64;88.35;100892.21;1805982;78;21496;-70
2020/12/16 02:27:54;;;;;;;2.80;2.37;;;;;;;-0.63;88.33;100893.91;1810512;79;21012;-69
2020/12/16 02:30:24;;;;;;;3.17;1.93;;;;;;;-0.63;88.34;100896.57;1810831;77;21063;-70
2020/12/16 02:32:57;;;;;;;5.08;2.47;;;;;;;-0.63;88.36;100894.39;1728485;81;21390;-69
2020/12/16 02:35:36;;;;;;;3.43;2.87;;;;;;;-0.60;88.37;100897.75;1890113;76;25125;-69
2020/12/16 02:38:08;;;;;;;4.20;3.17;;;;;;;-0.67;88.36;100906.12;1746432;81;21090;-69
2020/12/16 02:40:36;;;;;;;2.87;2.57;;;;;;;-0.68;88.37;100901.73;1746415;82;21330;-70
2020/12/16 02:43:05;;;;;;;4.03;2.90;;;;;;;-0.70;88.38;100910.25;1746476;82;20994;-69
2020/12/16 02:45:34;;;;;;;3.90;2.83;;;;;;;-0.69;88.40;100918.59;1746395;82;20963;-70
2020/12/16 02:48:13;;;;;;;6.00;2.87;;;;;;;-0.69;88.41;100922.13;1644839;87;21031;-69
2020/12/16 02:50:48;;;;;;;2.23;2.03;;;;;;;-0.63;88.45;100923.61;1845461;76;25672;-70
2020/12/16 02:53:20;;;;;;;3.50;2.50;;;;;;;-0.65;88.46;100929.47;1815370;79;21115;-68
2020/12/16 02:55:49;;;;;;;3.30;2.60;;;;;;;-0.64;88.48;100928.52;1739242;82;21394;-68
2020/12/16 02:58:17;;;;;;;7.27;3.87;;;;;;;-0.62;88.50;100928.84;1706364;84;21032;-69
2020/12/16 03:00:46;;;;;;;7.23;2.10;;;;;;;-0.60;88.50;100928.30;1729013;83;20971;-69
2020/12/16 03:03:32;;;;;;;5.07;2.97;;;;;;;-0.56;88.51;100936.97;1729107;83;21599;-68
2020/12/16 03:06:16;;;;;;;4.33;2.90;;;;;;;-0.53;88.53;100935.94;1843147;76;25297;-68
2020/12/16 03:08:49;;;;;;;8.60;2.05;;;;;;;-0.56;88.49;100942.77;1810855;79;20936;-69
2020/12/16 03:11:20;;;;;;;3.73;2.97;;;;;;;-0.56;88.48;100935.64;1815410;79;21371;-70
2020/12/16 03:13:50;;;;;;;4.87;2.50;;;;;;;-0.56;88.47;100947.59;1815292;78;20953;-70
2020/12/16 03:16:21;;;;;;;3.37;2.43;;;;;;;-0.54;88.46;100947.05;1815390;79;20905;-69
2020/12/16 03:18:54;;;;;;;3.83;2.57;;;;;;;-0.53;88.44;100943.91;1799707;78;21000;-69
2020/12/16 03:21:23;;;;;;;4.23;3.10;;;;;;;-0.51;88.42;100942.03;1735955;82;21586;-69
2020/12/16 03:23:53;;;;;;;5.00;2.60;;;;;;;-0.50;88.37;100941.95;1736792;82;21199;-69
2020/12/16 03:26:42;;;;;;;4.67;2.50;;;;;;;-0.49;88.35;100949.00;1736816;82;20960;-70
2020/12/16 03:29:19;;;;;;;2.23;2.00;;;;;;;-0.47;88.31;100945.80;1852064;76;26202;-68
2020/12/16 03:31:55;;;;;;;3.30;2.30;;;;;;;-0.52;88.23;100950.95;1778170;80;21003;-69
2020/12/16 03:34:25;;;;;;;3.23;1.97;;;;;;;-0.54;88.15;100953.69;1743930;81;21371;-70
2020/12/16 03:37:03;;;;;;;2.67;1.90;;;;;;;-0.47;88.10;100961.73;1842208;78;26823;-69
2020/12/16 03:39:33;;;;;;;2.67;1.93;;;;;;;-0.51;88.04;100965.50;1817533;79;20910;-69
2020/12/16 03:42:04;;;;;;;3.30;2.10;;;;;;;-0.50;88.00;100960.56;1817618;79;22234;-69
2020/12/16 03:44:33;;;;;;;2.73;2.17;;;;;;;-0.49;87.90;100958.78;1817429;79;20993;-68
2020/12/16 03:47:02;;;;;;;1.53;1.43;;;;;;;-0.51;87.78;100950.89;1817461;79;21547;-69
2020/12/16 03:49:30;;;;;;;2.37;1.43;;;;;;;-0.51;87.67;100952.66;1817567;79;20938;-70
2020/12/16 03:51:59;;;;;;;3.40;2.30;;;;;;;-0.52;87.57;100952.28;1817383;79;20985;-70
2020/12/16 03:54:30;;;;;;;6.07;1.83;;;;;;;-0.52;87.44;100946.50;1809665;79;22215;-69
2020/12/16 03:57:06;;;;;;;6.87;3.00;;;;;;;-0.54;87.30;100947.05;1812394;79;21294;-69
2020/12/16 03:59:53;;;;;;;6.83;3.97;;;;;;;-0.58;87.16;100947.67;1817433;79;21013;-69
2020/12/16 04:02:26;;;;;;;;;;;;;;;-0.58;87.06;100942.36;1815075;79;21028;-69
2020/12/16 04:04:55;;;;;;;1.97;1.83;;;;;;;-0.59;86.98;100946.41;1816113;78;20160;-69
2020/12/16 04:07:23;;;;;;;4.43;2.50;;;;;;;-0.57;86.94;100953.83;1817446;79;21200;-69
2020/12/16 04:09:53;;;;;;;2.57;1.40;;;;;;;-0.58;86.89;100963.61;1812255;79;21487;-69
2020/12/16 04:12:22;;;;;;;3.47;2.03;;;;;;;-0.57;86.87;100964.46;1817407;79;20977;-70
2020/12/16 04:14:51;;;;;;;4.17;2.00;;;;;;;-0.58;86.83;100967.59;1817465;79;20938;-69
2020/12/16 04:17:19;;;;;;;2.27;1.77;;;;;;;-0.58;86.80;100969.41;1813835;79;21630;-69
2020/12/16 04:19:55;;;;;;;1.97;1.83;;;;;;;-0.60;86.74;100973.45;1778081;78;21468;-69
2020/12/16 04:22:23;;;;;;;2.53;2.27;;;;;;;-0.60;86.67;100975.27;1783510;80;21026;-69
2020/12/16 04:24:53;;;;;;;2.20;1.80;;;;;;;-0.61;86.64;100973.53;1780316;80;20982;-70
2020/12/16 04:27:22;;;;;;;3.27;2.00;;;;;;;-0.61;86.62;100977.52;1780244;80;21022;-69
2020/12/16 04:29:50;;;;;;;1.77;1.67;;;;;;;-0.60;86.62;100978.77;1783513;80;20998;-70
2020/12/16 04:32:19;;;;;;;2.70;2.33;;;;;;;-0.58;86.60;100984.02;1783590;80;21373;-70
2020/12/16 04:34:48;;;;;;;4.53;2.60;;;;;;;-0.57;86.59;100976.42;1783391;80;20986;-69
2020/12/16 04:37:16;;;;;;;5.00;2.80;;;;;;;-0.57;86.54;100976.42;1794703;80;20990;-70
2020/12/16 04:39:47;;;;;;;5.37;3.07;;;;;;;-0.56;86.52;100973.31;1792497;80;21745;-70
2020/12/16 04:42:15;;;;;;;5.03;2.90;;;;;;;-0.56;86.51;100981.28;1794934;80;20946;-69
2020/12/16 04:44:43;;;;;;;5.83;3.30;;;;;;;-0.53;86.50;100987.75;1795001;80;21388;-70
2020/12/16 04:47:13;;;;;;;6.43;4.03;;;;;;;-0.54;86.47;100982.91;1794509;79;21017;-69
2020/12/16 04:49:43;;;;;;;3.77;2.30;;;;;;;-0.56;86.43;100983.47;1794070;79;21064;-69
2020/12/16 04:52:13;;;;;;;2.70;1.80;;;;;;;-0.60;86.39;100992.53;1794296;80;21024;-70
2020/12/16 04:54:43;;;;;;;1.43;0.87;;;;;;;-0.64;86.37;100986.95;1748567;80;21061;-69
2020/12/16 04:57:11;;;;;;;3.73;2.47;;;;;;;-0.66;86.38;100989.69;1794274;80;21200;-70
2020/12/16 04:59:41;;;;;;;6.73;2.83;;;;;;;-0.65;86.39;100987.91;1794399;80;20998;-70
2020/12/16 05:02:23;;;;;;;5.13;3.23;;;;;;;-0.62;86.45;100989.95;1852083;76;25336;-70
2020/12/16 05:04:59;;;;;;;5.20;2.47;;;;;;;-0.65;86.49;101004.70;1715758;82;21048;-70
2020/12/16 05:07:28;;;;;;;3.67;2.37;;;;;;;-0.63;86.53;101003.30;1737509;82;21220;-69
2020/12/16 05:09:57;;;;;;;4.27;2.90;;;;;;;-0.60;86.55;101004.48;1737464;82;21044;-69
2020/12/16 05:12:25;;;;;;;4.13;2.97;;;;;;;-0.58;86.56;100999.95;1737494;82;21150;-70
2020/12/16 05:14:53;;;;;;;14.37;2.67;;;;;;;-0.58;86.56;101013.23;1737363;82;21603;-70
2020/12/16 05:17:21;;;;;;;2.13;1.90;;;;;;;-0.60;86.53;101013.78;1736460;82;21013;-69
2020/12/16 05:20:10;;;;;;;2.27;2.07;;;;;;;-0.60;86.51;101013.78;1843889;76;26171;-69
2020/12/16 05:22:41;;;;;;;2.03;1.77;;;;;;;-0.68;86.51;101015.47;1747400;82;20986;-70
2020/12/16 05:25:09;;;;;;;2.43;1.70;;;;;;;-0.69;86.55;101031.48;1778002;80;21073;-69
2020/12/16 05:27:37;;;;;;;3.83;2.60;;;;;;;-0.68;86.57;101023.91;1747177;82;20986;-70
2020/12/16 05:30:09;;;;;;;3.97;2.83;;;;;;;-0.67;86.60;101030.96;1747168;82;20990;-70
2020/12/16 05:32:37;;;;;;;4.50;3.10;;;;;;;-0.66;86.62;101036.17;1747175;81;20993;-70
2020/12/16 05:35:31;;;;;;;4.10;2.37;;;;;;;-0.69;86.63;101036.79;1747201;81;20998;-69
2020/12/16 05:38:02;;;;;;;5.77;3.70;;;;;;;-0.73;86.62;101038.73;1747143;82;21200;-70
2020/12/16 05:40:35;;;;;;;;;;;;;;;-0.75;86.66;101043.27;1749675;81;20962;-69
2020/12/16 05:43:03;;;;;;;8.30;4.80;;;;;;;-0.75;86.71;101029.98;1747332;82;20174;-69
2020/12/16 05:45:39;;;;;;;5.43;4.13;;;;;;;-0.73;86.75;101045.85;1747199;81;21001;-69
2020/12/16 05:48:09;;;;;;;6.97;3.47;;;;;;;-0.72;86.75;101046.26;1744501;82;21065;-69
2020/12/16 05:50:55;;;;;;;5.63;3.53;;;;;;;-0.73;86.80;101040.54;1747215;81;21211;-69
2020/12/16 05:53:29;;;;;;;6.83;4.47;;;;;;;-0.77;86.80;101040.68;1747064;82;21049;-70
2020/12/16 05:56:01;;;;;;;9.47;4.90;;;;;;;-0.77;86.83;101043.33;1641810;85;21514;-70
2020/12/16 05:58:32;;;;;;;11.08;5.80;;;;;;;-0.72;86.87;101050.24;1640032;87;21005;-72
2020/12/16 06:01:05;;;;;;;5.70;3.93;;;;;;;-0.71;86.92;101054.13;1668543;86;20986;-70
2020/12/16 06:03:40;;;;;;;7.27;4.30;;;;;;;-0.64;86.99;101048.94;1845471;76;26096;-63
2020/12/16 06:06:10;;;;;;;3.57;2.67;;;;;;;-0.66;87.00;101053.44;1815341;78;20909;-64
2020/12/16 06:08:41;;;;;;;7.87;3.43;;;;;;;-0.65;86.99;101051.66;1815485;79;22245;-63
2020/12/16 06:11:14;;;;;;;8.13;4.25;;;;;;;-0.64;87.03;101053.37;1815511;79;20921;-62
2020/12/16 06:13:46;;;;;;;10.87;5.13;;;;;;;-0.62;87.04;101055.48;1815339;78;20925;-64
2020/12/16 06:16:14;;;;;;;9.90;4.22;;;;;;;-0.62;87.06;101059.02;1815432;79;20996;-62
2020/12/16 06:18:44;;;;;;;7.83;4.07;;;;;;;-0.65;87.01;101063.62;1799583;78;20980;-64
2020/12/16 06:21:13;;;;;;;3.13;2.70;;;;;;;-0.68;87.00;101058.45;1783179;80;21197;-64
2020/12/16 06:23:44;;;;;;;5.00;3.43;;;;;;;-0.70;86.94;101075.78;1783099;80;20948;-63
2020/12/16 06:26:19;;;;;;;9.70;5.03;;;;;;;-0.70;86.96;101065.16;1825215;78;21029;-63
2020/12/16 06:28:47;;;;;;;4.33;2.73;;;;;;;-0.68;86.96;101079.22;1825029;78;21086;-71
2020/12/16 06:31:30;;;;;;;2.43;2.23;;;;;;;-0.67;86.90;101084.09;1783077;80;21118;-69
2020/12/16 06:34:06;;;;;;;2.63;1.83;;;;;;;-0.70;86.82;101076.26;1783189;80;21379;-70
2020/12/16 06:36:42;;;;;;;2.27;2.03;;;;;;;-0.72;86.74;101078.13;1778684;80;20992;-69
2020/12/16 06:39:23;;;;;;;2.07;1.90;;;;;;;-0.73;86.64;101078.58;1755131;80;20996;-69
2020/12/16 06:41:56;;;;;;;1.43;1.33;;;;;;;-0.72;86.58;101076.80;1782975;80;20968;-69
2020/12/16 06:44:25;;;;;;;2.33;1.83;;;;;;;-0.72;86.46;101078.13;1783239;79;20996;-69
2020/12/16 06:46:54;;;;;;;1.87;1.57;;;;;;;-0.73;86.36;101073.27;1783226;80;21191;-69
2020/12/16 06:49:27;;;;;;;3.37;1.77;;;;;;;-0.74;86.26;101070.67;1782673;80;21136;-69
2020/12/16 06:52:07;;;;;;;7.87;4.20;;;;;;;-0.73;86.12;101069.75;1783009;79;20996;-69
2020/12/16 06:54:44;;;;;;;4.47;2.90;;;;;;;-0.71;86.04;101074.05;1737019;82;21099;-69
2020/12/16 06:57:20;;;;;;;10.83;6.33;;;;;;;-0.68;85.93;101075.23;1736627;81;21168;-70
2020/12/16 06:59:56;;;;;;;10.30;3.53;;;;;;;-0.64;85.85;101080.81;1759678;81;21359;-68
2020/12/16 07:02:33;;;;;;;18.97;8.40;;;;;;;-0.62;85.76;101078.05;1756690;81;21020;-69
2020/12/16 07:05:05;;;;;;;18.43;8.70;;;;;;;-0.61;85.66;101077.98;1752565;81;21601;-68
2020/12/16 07:07:47;;;;;;;12.30;6.60;;;;;;;-0.53;85.63;101074.09;1851845;76;25443;-69
2020/12/16 07:10:41;;;;;;;12.63;6.10;;;;;;;-0.55;85.54;101073.31;1782326;80;21086;-78
2020/12/16 07:13:16;;;;;;;8.33;4.47;;;;;;;-0.53;85.48;101073.66;1853954;77;21083;-79
2020/12/16 07:16:12;;;;;;;4.33;3.63;;;;;;;-0.48;85.43;101074.30;1854319;77;20996;-68
2020/12/16 07:18:47;;;;;;;5.90;4.00;;;;;;;-0.46;85.38;101072.41;1833106;77;21029;-70
2020/12/16 07:21:24;;;;;;;10.10;5.47;;;;;;;-0.39;85.34;101072.95;1844625;76;25147;-69
2020/12/16 07:23:58;;;;;;;5.43;3.50;;;;;;;-0.40;85.31;101076.56;1815211;77;20934;-69
2020/12/16 07:26:31;;;;;;;9.63;5.37;;;;;;;-0.41;85.23;101081.03;1810622;79;21456;-69
2020/12/16 07:29:01;;;;;;;6.43;3.90;;;;;;;-0.41;85.19;101079.70;1815070;79;21051;-67
2020/12/16 07:31:28;;;;;;;4.83;3.87;;;;;;;-0.40;85.17;101085.39;1814121;79;21587;-70
2020/12/16 07:33:56;;;;;;;8.20;4.30;;;;;;;-0.40;85.08;101084.06;1813542;79;21021;-67
2020/12/16 07:36:24;;;;;;;10.60;6.23;;;;;;;-0.40;85.03;101080.55;1776469;79;21008;-68
2020/12/16 07:38:54;;;;;;;10.67;5.17;;;;;;;-0.38;84.98;101082.66;1813518;78;21198;-68
2020/12/16 07:41:30;;;;;;;8.07;3.93;;;;;;;-0.36;84.92;101078.60;1746994;82;20958;-66
2020/12/16 07:44:00;;;;;;;17.67;8.73;;;;;;;-0.33;84.89;101082.45;1747184;82;21484;-67
2020/12/16 07:46:28;;;;;;;13.70;7.73;;;;;;;-0.30;84.83;101082.27;1746969;82;20997;-69
2020/12/16 07:48:57;;;;;;;5.97;3.53;;;;;;;-0.26;84.83;101085.19;1747158;82;21053;-68
2020/12/16 07:51:24;;;;;;;11.10;4.97;;;;;;;-0.22;84.79;101081.43;1746889;82;21346;-70
2020/12/16 07:53:52;;;;;;;9.60;6.20;;;;;;;-0.17;84.75;101082.55;1746859;82;20958;-68
2020/12/16 07:56:20;;;;;;;9.13;5.47;;;;;;;-0.14;84.62;101082.37;1747057;81;21570;-69
2020/12/16 07:58:48;;;;;;;6.60;4.53;;;;;;;-0.10;84.53;101076.83;1747061;82;21014;-70
2020/12/16 08:01:18;;;;;;;12.27;6.10;;;;;;;-0.06;84.40;101080.20;1746996;82;21033;-69
2020/12/16 08:03:46;;;;;;;7.20;4.80;;;;;;;-0.03;84.24;101087.55;1747068;81;21204;-69
2020/12/16 08:06:15;;;;;;;8.40;4.83;;;;;;;-0.04;84.07;101083.16;1746695;82;21587;-70
2020/12/16 08:08:51;;;;;;;6.40;3.67;;;;;;;-0.03;83.89;101086.22;1746994;82;21001;-70
2020/12/16 08:11:25;;;;;;;15.67;7.63;;;;;;;-0.03;83.75;101086.70;1652718;85;21071;-69
2020/12/16 08:14:06;;;;;;;11.40;6.20;;;;;;;-0.04;83.64;101087.63;1711999;83;21243;-68
2020/12/16 08:16:44;;;;;;;11.60;5.27;;;;;;;0.00;83.59;101086.55;1843635;76;27932;-67
2020/12/16 08:19:11;;;;;;;15.97;6.63;;;;;;;-0.04;83.51;101087.14;1799280;78;21052;-69
2020/12/16 08:21:39;;;;;;;12.07;6.07;;;;;;;-0.03;83.50;101089.36;1744521;80;21362;-68
2020/12/16 08:24:09;;;;;;;12.10;5.77;;;;;;;-0.03;83.43;101087.55;1751293;80;21083;-69
2020/12/16 08:26:41;;;;;;;24.30;10.68;;;;;;;0.01;83.41;101089.58;1782501;80;21033;-68
2020/12/16 08:29:09;;;;;;;30.33;15.90;;;;;;;0.01;83.30;101088.73;1726901;80;21017;-69
2020/12/16 08:31:37;;;;;;;10.33;6.73;;;;;;;-0.02;83.18;101087.95;1752447;80;21017;-67
2020/12/16 08:34:05;;;;;;;9.50;4.73;;;;;;;-0.04;83.07;101083.63;1752427;80;21883;-70
2020/12/16 08:36:34;;;;;;;11.67;5.27;;;;;;;-0.04;83.08;101091.13;1728047;80;21040;-68
2020/12/16 08:39:06;;;;;;;8.07;4.47;;;;;;;-0.04;83.09;101088.47;1752943;80;21013;-69
2020/12/16 08:41:35;;;;;;;9.23;4.33;;;;;;;0.01;83.09;101086.07;1783163;80;21065;-70
2020/12/16 08:44:05;;;;;;;7.33;4.13;;;;;;;-0.05;82.92;101085.44;1793782;77;21174;-68
2020/12/16 08:46:38;;;;;;;5.77;3.30;;;;;;;-0.09;82.86;101083.89;1815427;79;22090;-70
2020/12/16 08:49:07;;;;;;;7.30;3.90;;;;;;;-0.12;82.90;101083.18;1812492;79;20881;-69
2020/12/16 08:51:40;;;;;;;9.87;5.30;;;;;;;-0.11;82.97;101088.39;1815268;77;21534;-70
2020/12/16 08:54:25;;;;;;;13.00;5.63;;;;;;;-0.12;83.03;101082.70;1783288;79;21555;-70
2020/12/16 08:56:57;;;;;;;14.10;5.90;;;;;;;-0.10;83.04;101079.97;1811954;79;21017;-71
2020/12/16 08:59:29;;;;;;;6.23;3.40;;;;;;;-0.10;83.00;101083.48;1813814;79;21325;-70
2020/12/16 09:02:07;;;;;;;8.13;3.58;;;;;;;-0.08;82.90;101087.39;1746898;81;20998;-71
2020/12/16 09:04:40;;;;;;;6.47;3.63;;;;;;;-0.08;82.76;101085.59;1769532;81;21016;-70
2020/12/16 09:07:23;;;;;;;6.93;4.10;;;;;;;0.01;82.66;101092.72;1845197;76;26607;-70
2020/12/16 09:12:30;;;;;;;6.13;4.20;;;;;;;0.04;82.34;101089.44;1906444;74;26906;-70
2020/12/16 09:15:02;;;;;;;5.13;4.00;;;;;;;0.01;82.14;101095.38;1811529;79;20981;-70
2020/12/16 09:17:31;;;;;;;3.43;2.20;;;;;;;0.03;82.05;101089.51;1815806;79;21191;-69
2020/12/16 09:19:59;;;;;;;5.33;3.20;;;;;;;0.06;81.87;101092.88;1794119;79;20970;-70
2020/12/16 09:22:29;;;;;;;15.87;8.43;;;;;;;0.06;81.68;101088.88;1822226;78;21016;-70
2020/12/16 09:24:59;;;;;;;19.13;8.63;;;;;;;0.06;81.56;101092.88;1822084;78;21004;-70
2020/12/16 09:27:28;;;;;;;18.93;7.47;;;;;;;0.08;81.51;101096.78;1822204;78;21030;-72
2020/12/16 09:29:56;;;;;;;17.27;8.30;;;;;;;0.08;81.46;101100.30;1823115;78;22774;-72
2020/12/16 09:32:27;;;;;;;22.30;11.73;;;;;;;0.07;81.35;101099.92;1822759;78;21051;-72
2020/12/16 09:34:55;;;;;;;13.33;7.73;;;;;;;0.04;81.23;101100.07;1815596;78;21030;-73
2020/12/16 09:37:33;;;;;;;28.40;12.87;;;;;;;0.03;81.26;101094.34;1783923;80;21069;-71
2020/12/16 09:40:08;;;;;;;38.23;20.03;;;;;;;0.03;81.25;101093.50;1772513;80;21002;-70
2020/12/16 09:42:37;;;;;;;12.30;7.40;;;;;;;0.04;81.32;101099.22;1785910;79;27294;-69
2020/12/16 09:45:15;;;;;;;10.43;5.13;;;;;;;0.04;81.38;101097.41;1775342;80;21026;-72
2020/12/16 09:47:44;;;;;;;26.10;13.57;;;;;;;0.06;81.43;101090.69;1811303;78;20958;-71
2020/12/16 09:50:12;;;;;;;18.73;10.03;;;;;;;0.06;81.41;101088.03;1781895;79;21021;-70
2020/12/16 09:52:40;;;;;;;9.67;5.43;;;;;;;0.00;81.38;101095.86;1807804;78;21099;-70
2020/12/16 09:55:19;;;;;;;9.13;5.27;;;;;;;0.02;81.44;101091.77;1812297;78;21923;-71
2020/12/16 09:58:07;;;;;;;6.93;4.40;;;;;;;0.03;81.49;101088.18;1809198;79;21089;-72
2020/12/16 10:00:41;;;;;;;3.50;2.57;;;;;;;0.06;81.53;101088.03;1796355;79;21005;-71
2020/12/16 10:05:43;;;;;;;9.83;5.03;;;;;;;0.04;81.56;101082.78;1713967;83;21244;-62
2020/12/16 10:08:15;;;;;;;16.90;9.97;;;;;;;0.05;81.61;101083.64;1749197;82;21671;-62
2020/12/16 10:10:51;;;;;;;11.90;4.47;;;;;;;0.10;81.63;101089.11;1866017;76;26751;-62
2020/12/16 10:13:22;;;;;;;7.40;4.37;;;;;;;0.05;81.62;101085.81;1835420;77;21562;-70
2020/12/16 10:15:51;;;;;;;15.57;6.90;;;;;;;0.02;81.59;101084.67;1836299;77;21187;-72
2020/12/16 10:18:21;;;;;;;8.57;5.33;;;;;;;-0.02;81.54;101090.61;1833201;77;20965;-71
2020/12/16 10:20:50;;;;;;;9.43;5.13;;;;;;;0.00;81.56;101094.53;1826997;78;20981;-70
2020/12/16 10:23:18;;;;;;;4.43;3.10;;;;;;;0.02;81.64;101095.31;1831151;77;21605;-73
2020/12/16 10:25:46;;;;;;;5.37;3.00;;;;;;;0.04;81.62;101092.58;1826160;77;20973;-68
2020/12/16 10:28:16;;;;;;;5.13;3.07;;;;;;;0.05;81.57;101085.81;1834766;77;21534;-68
2020/12/16 10:30:44;;;;;;;11.13;5.93;;;;;;;0.06;81.53;101088.03;1836733;77;21641;-72
2020/12/16 10:33:13;;;;;;;6.30;4.07;;;;;;;0.10;81.53;101085.13;1836297;77;20984;-71
2020/12/16 10:35:42;;;;;;;11.60;5.60;;;;;;;0.11;81.43;101082.86;1836461;77;21072;-72
2020/12/16 10:38:13;;;;;;;21.30;8.43;;;;;;;0.11;81.32;101084.67;1831689;77;21012;-70
2020/12/16 10:40:41;;;;;;;12.03;6.20;;;;;;;0.14;81.30;101077.84;1836397;77;21385;-69
2020/12/16 10:43:09;;;;;;;19.60;8.93;;;;;;;0.17;81.26;101082.53;1831668;77;20948;-72
2020/12/16 10:45:37;;;;;;;13.97;5.70;;;;;;;0.18;81.10;101076.28;1831682;77;21004;-71
2020/12/16 10:48:05;;;;;;;24.03;10.83;;;;;;;0.18;81.01;101080.28;1831614;77;21028;-71
2020/12/16 10:50:33;;;;;;;9.87;4.83;;;;;;;0.19;80.88;101075.81;1836346;77;21021;-70
2020/12/16 10:53:02;;;;;;;15.73;7.23;;;;;;;0.18;80.85;101078.95;1831616;77;23424;-75
2020/12/16 10:55:30;;;;;;;19.80;8.37;;;;;;;0.18;80.79;101074.95;1831872;77;21199;-74
2020/12/16 10:57:57;;;;;;;9.77;4.80;;;;;;;0.21;80.79;101075.73;1836092;77;21000;-69
2020/12/16 11:00:25;;;;;;;7.70;4.20;;;;;;;0.20;80.78;101071.37;1836052;77;21016;-72
2020/12/16 11:02:53;;;;;;;3.97;3.27;;;;;;;0.22;80.80;101083.64;1826864;78;20991;-72
2020/12/16 11:05:21;;;;;;;17.60;8.43;;;;;;;0.22;80.82;101077.47;1831804;77;22308;-73
2020/12/16 11:07:48;;;;;;;10.93;4.33;;;;;;;0.19;80.73;101073.15;1826420;78;21039;-70
2020/12/16 11:10:17;;;;;;;7.23;4.43;;;;;;;0.15;80.75;101073.78;1817760;78;21032;-68
2020/12/16 11:12:44;;;;;;;4.00;2.87;;;;;;;0.15;80.78;101074.26;1813920;79;21052;-69
2020/12/16 11:15:12;;;;;;;6.53;3.43;;;;;;;0.13;80.87;101076.14;1814104;79;20925;-72
2020/12/16 11:17:40;;;;;;;2.57;2.30;;;;;;;0.12;80.89;101079.25;1818642;78;21409;-72
2020/12/16 11:20:08;;;;;;;4.53;2.90;;;;;;;0.11;80.93;101080.20;1844944;77;20997;-71
2020/12/16 11:22:37;;;;;;;2.57;2.37;;;;;;;0.10;81.02;101074.96;1828174;77;21056;-73
2020/12/16 11:25:05;;;;;;;2.10;1.83;;;;;;;0.10;81.09;101082.94;1822703;78;20945;-69
2020/12/16 11:27:33;;;;;;;2.67;1.63;;;;;;;0.11;81.18;101080.20;1825854;77;21028;-70
2020/12/16 11:30:01;;;;;;;2.40;2.20;;;;;;;0.12;81.21;101082.39;1824279;77;21251;-70
2020/12/16 11:32:31;;;;;;;2.03;1.90;;;;;;;0.13;81.29;101080.98;1820357;77;21009;-70
2020/12/16 11:35:00;;;;;;;2.10;1.90;;;;;;;0.17;81.33;101081.69;1826028;77;20995;-71
2020/12/16 11:37:29;;;;;;;4.00;3.03;;;;;;;0.21;81.37;101082.39;1823993;77;21008;-72
2020/12/16 11:39:59;;;;;;;5.00;2.97;;;;;;;0.24;81.39;101087.55;1824710;77;20971;-70
2020/12/16 11:42:28;;;;;;;4.47;2.50;;;;;;;0.22;81.31;101086.78;1823113;77;21370;-70
2020/12/16 11:44:56;;;;;;;5.47;3.30;;;;;;;0.21;81.29;101086.38;1821923;78;21069;-69
2020/12/16 11:47:24;;;;;;;5.13;2.63;;;;;;;0.18;81.24;101094.06;1824713;77;21334;-69
2020/12/16 11:49:51;;;;;;;5.67;3.63;;;;;;;0.17;81.26;101098.49;1823525;78;21008;-68